createdAt,value
2023-02-24T00:02:05.962Z,97213.09
2023-02-24T00:04:40.123Z,97212.03
2023-02-24T00:07:10.539Z,97203.47
2023-02-24T00:09:38.221Z,97207.75
2023-02-24T00:12:10.620Z,97200.78
2023-02-24T00:14:41.007Z,97202.31
2023-02-24T00:17:08.704Z,97199.88
2023-02-24T00:19:36.962Z,97191.03
2023-02-24T00:22:06.268Z,97191.84
2023-02-24T00:24:33.371Z,97195.84
2023-02-24T00:27:03.317Z,97186.41
2023-02-24T00:29:30.648Z,97189.91
2023-02-24T00:32:02.413Z,97188.50
2023-02-24T00:34:31.548Z,97178.06
2023-02-24T00:36:58.539Z,97191.50
2023-02-24T00:39:34.019Z,97184.53
2023-02-24T00:42:06.504Z,97183.47
2023-02-24T00:44:42.042Z,97181.38
2023-02-24T00:47:10.622Z,97176.03
2023-02-24T00:49:43.121Z,97180.91
2023-02-24T00:52:15.581Z,97167.25
2023-02-24T00:54:43.865Z,97173.41
2023-02-24T00:57:11.647Z,97154.69
2023-02-24T00:59:39.112Z,97157.34
2023-02-24T01:02:09.083Z,97154.19
2023-02-24T01:04:37.738Z,97154.78
2023-02-24T01:07:10.980Z,97155.31
2023-02-24T01:09:39.508Z,97151.09
2023-02-24T01:12:22.604Z,97135.03
2023-02-24T01:14:52.639Z,97142.84
2023-02-24T01:17:20.806Z,97143.16
2023-02-24T01:19:49.894Z,97131.38
2023-02-24T01:22:19.590Z,97138.34
2023-02-24T01:24:47.008Z,97137.84
2023-02-24T01:27:19.217Z,97133.31
2023-02-24T01:29:47.193Z,97126.66
2023-02-24T01:32:19.477Z,97130.94
2023-02-24T01:34:47.872Z,97128.03
2023-02-24T01:37:17.205Z,97131.53
2023-02-24T01:39:46.316Z,97125.09
2023-02-24T01:42:20.024Z,97121.94
2023-02-24T01:44:46.871Z,97120.63
2023-02-24T01:47:16.282Z,97116.31
2023-02-24T01:49:47.643Z,97112.84
2023-02-24T01:52:20.254Z,97112.34
2023-02-24T01:54:55.271Z,97117.44
2023-02-24T01:57:26.059Z,97111.28
2023-02-24T01:59:58.261Z,97105.91
2023-02-24T02:02:25.378Z,97113.94
2023-02-24T02:04:59.857Z,97112.66
2023-02-24T02:07:29.613Z,97107.28
2023-02-24T02:10:00.808Z,97102.75
2023-02-24T02:12:28.543Z,97099.81
2023-02-24T02:14:59.463Z,97103.31
2023-02-24T02:18:07.713Z,97107.34
2023-02-24T02:20:42.395Z,97104.66
2023-02-24T02:23:28.918Z,97103.63
2023-02-24T02:26:18.968Z,97094.44
2023-02-24T02:29:03.970Z,97098.28
2023-02-24T02:31:42.513Z,97095.28
2023-02-24T02:34:27.740Z,97088.78
2023-02-24T02:37:29.633Z,97085.81
2023-02-24T02:40:23.697Z,97081.47
2023-02-24T02:43:18.674Z,97079.88
2023-02-24T02:45:56.167Z,97072.91
2023-02-24T02:48:34.575Z,97072.09
2023-02-24T02:51:11.565Z,97073.72
2023-02-24T02:54:10.498Z,97076.13
2023-02-24T02:57:17.873Z,97073.72
2023-02-24T02:59:54.458Z,97070.22
2023-02-24T03:02:29.744Z,97068.34
2023-02-24T03:05:00.775Z,97063.97
2023-02-24T03:07:35.003Z,97075.91
2023-02-24T03:10:09.736Z,97081.00
2023-02-24T03:12:40.560Z,97068.91
2023-02-24T03:15:11.057Z,97068.97
2023-02-24T03:17:43.593Z,97069.22
2023-02-24T03:20:24.350Z,97065.72
2023-02-24T03:23:01.286Z,97063.63
2023-02-24T03:25:44.618Z,97058.75
2023-02-24T03:28:18.899Z,97055.81
2023-02-24T03:30:58.044Z,97061.97
2023-02-24T03:33:32.274Z,97057.69
2023-02-24T03:36:01.802Z,97049.66
2023-02-24T03:38:31.506Z,97054.47
2023-02-24T03:40:59.249Z,97049.59
2023-02-24T03:43:33.339Z,97052.00
2023-02-24T03:46:01.526Z,97044.22
2023-02-24T03:48:29.085Z,97041.56
2023-02-24T03:50:56.229Z,97043.16
2023-02-24T03:53:41.862Z,97036.19
2023-02-24T03:56:27.534Z,97043.47
2023-02-24T03:59:23.787Z,97034.38
2023-02-24T04:02:04.137Z,97030.88
2023-02-24T04:04:30.814Z,97026.34
2023-02-24T04:07:23.315Z,97022.84
2023-02-24T04:09:59.319Z,97021.56
2023-02-24T04:12:35.432Z,97020.75
2023-02-24T04:15:38.747Z,97011.06
2023-02-24T04:18:20.707Z,97004.34
2023-02-24T04:20:53.275Z,97012.13
2023-02-24T04:23:29.048Z,97005.72
2023-02-24T04:25:56.441Z,97009.53
2023-02-24T04:28:25.504Z,97010.56
2023-02-24T04:30:57.992Z,96996.38
2023-02-24T04:33:25.711Z,96992.94
2023-02-24T04:35:53.467Z,96985.16
2023-02-24T04:38:20.784Z,96989.69
2023-02-24T04:40:49.852Z,96978.69
2023-02-24T04:43:17.526Z,96983.78
2023-02-24T04:45:44.835Z,96984.56
2023-02-24T04:48:14.400Z,96977.38
2023-02-24T04:50:43.889Z,96974.69
2023-02-24T04:53:12.832Z,96976.31
2023-02-24T04:55:48.644Z,96973.63
2023-02-24T04:58:19.686Z,96977.91
2023-02-24T05:00:55.193Z,96980.91
2023-02-24T05:03:28.995Z,96981.72
2023-02-24T05:06:02.721Z,96973.44
2023-02-24T05:08:31.125Z,96976.34
2023-02-24T05:10:58.825Z,96971.78
2023-02-24T05:13:28.489Z,96976.41
2023-02-24T05:15:58.276Z,96972.38
2023-02-24T05:18:30.223Z,96976.91
2023-02-24T05:21:15.902Z,96976.41
2023-02-24T05:23:46.981Z,96976.41
2023-02-24T05:26:17.335Z,96977.47
2023-02-24T05:28:49.428Z,96973.66
2023-02-24T05:31:28.603Z,96970.19
2023-02-24T05:33:58.453Z,96973.44
2023-02-24T05:36:28.040Z,96972.63
2023-02-24T05:38:58.148Z,96978.25
2023-02-24T05:41:32.635Z,96973.47
2023-02-24T05:44:02.576Z,96976.97
2023-02-24T05:46:32.911Z,96977.53
2023-02-24T05:49:02.594Z,96975.16
2023-02-24T05:51:36.652Z,96974.66
2023-02-24T05:54:05.311Z,96973.31
2023-02-24T05:56:33.957Z,96963.41
2023-02-24T05:59:02.593Z,96971.75
2023-02-24T06:01:31.763Z,96961.03
2023-02-24T06:04:06.129Z,96959.41
2023-02-24T06:06:35.263Z,96955.13
2023-02-24T06:09:13.477Z,96959.41
2023-02-24T06:11:42.297Z,96966.16
2023-02-24T06:14:10.421Z,96974.72
2023-02-24T06:16:40.086Z,96963.50
2023-02-24T06:19:10.236Z,96969.75
2023-02-24T06:21:41.592Z,96967.09
2023-02-24T06:24:15.525Z,96968.19
2023-02-24T06:26:45.908Z,96969.31
2023-02-24T06:29:14.924Z,96964.53
2023-02-24T06:31:43.198Z,96968.09
2023-02-24T06:34:18.599Z,96970.81
2023-02-24T06:36:47.035Z,96967.03
2023-02-24T06:39:14.614Z,96977.34
2023-02-24T06:41:42.783Z,96971.69
2023-02-24T06:44:09.897Z,96971.72
2023-02-24T06:46:37.309Z,96976.06
2023-02-24T06:49:04.251Z,96976.09
2023-02-24T06:51:31.349Z,96970.50
2023-02-24T06:53:59.592Z,96957.88
2023-02-24T06:56:28.109Z,96967.59
2023-02-24T06:58:57.034Z,96964.38
2023-02-24T07:01:26.939Z,96962.81
2023-02-24T07:04:17.867Z,96958.25
2023-02-24T07:06:52.230Z,96962.31
2023-02-24T07:09:20.864Z,96963.38
2023-02-24T07:11:52.538Z,96962.59
2023-02-24T07:14:22.331Z,96958.03
2023-02-24T07:16:54.296Z,96948.91
2023-02-24T07:19:25.933Z,96955.16
2023-02-24T07:22:00.437Z,96946.31
2023-02-24T07:24:39.462Z,96951.97
2023-02-24T07:27:12.997Z,96943.63
2023-02-24T07:29:40.045Z,96950.13
2023-02-24T07:32:09.473Z,96950.44
2023-02-24T07:34:40.107Z,96950.19
2023-02-24T07:37:08.872Z,96943.47
2023-02-24T07:39:37.754Z,96941.88
2023-02-24T07:42:05.827Z,96938.13
2023-02-24T07:44:33.227Z,96939.50
2023-02-24T07:47:00.576Z,96942.75
2023-02-24T07:49:30.645Z,96929.34
2023-02-24T07:51:58.220Z,96920.47
2023-02-24T07:54:31.441Z,96923.72
2023-02-24T07:57:01.952Z,96927.78
2023-02-24T07:59:32.580Z,96915.41
2023-02-24T08:02:00.635Z,96922.94
2023-02-24T08:04:30.308Z,96915.69
2023-02-24T08:06:59.406Z,96911.41
2023-02-24T08:09:46.655Z,96913.56
2023-02-24T08:12:22.093Z,96917.84
2023-02-24T08:14:51.848Z,96914.09
2023-02-24T08:17:24.300Z,96903.06
2023-02-24T08:20:12.759Z,96905.19
2023-02-24T08:22:44.565Z,96905.75
2023-02-24T08:25:19.229Z,96914.34
2023-02-24T08:28:07.519Z,96898.72
2023-02-24T08:30:40.453Z,96899.47
2023-02-24T08:33:10.366Z,96898.41
2023-02-24T08:35:44.750Z,96898.09
2023-02-24T08:38:19.282Z,96895.34
2023-02-24T08:40:54.433Z,96892.34
2023-02-24T08:43:30.680Z,96889.34
2023-02-24T08:46:13.206Z,96884.44
2023-02-24T08:48:46.783Z,96870.09
2023-02-24T08:51:35.055Z,96874.16
2023-02-24T08:54:11.669Z,96869.25
2023-02-24T08:56:44.097Z,96865.97
2023-02-24T08:59:30.888Z,96864.06
2023-02-24T09:02:17.868Z,96861.06
2023-02-24T09:04:49.732Z,96859.66
2023-02-24T09:07:40.859Z,96864.81
2023-02-24T09:10:18.503Z,96847.09
2023-02-24T09:12:45.642Z,96848.16
2023-02-24T09:15:17.004Z,96850.50
2023-02-24T09:17:47.245Z,96857.44
2023-02-24T09:20:43.660Z,96856.22
2023-02-24T09:23:20.512Z,96851.25
2023-02-24T09:25:50.997Z,96851.72
2023-02-24T09:28:20.587Z,96831.22
2023-02-24T09:30:59.093Z,96849.75
2023-02-24T09:33:30.054Z,96837.34
2023-02-24T09:36:09.828Z,96842.97
2023-02-24T09:39:01.481Z,96841.47
2023-02-24T09:41:56.474Z,96828.88
2023-02-24T09:44:33.411Z,96828.56
2023-02-24T09:47:09.371Z,96826.78
2023-02-24T09:49:46.936Z,96822.91
2023-02-24T09:52:17.699Z,96824.94
2023-02-24T09:55:13.874Z,96822.72
2023-02-24T09:58:12.377Z,96801.44
2023-02-24T10:00:44.628Z,96806.00
2023-02-24T10:03:42.722Z,96800.81
2023-02-24T10:06:20.840Z,96812.88
2023-02-24T10:09:12.689Z,96800.50
2023-02-24T10:11:55.826Z,96798.69
2023-02-24T10:15:14.785Z,96787.47
2023-02-24T10:17:47.260Z,96787.31
2023-02-24T10:20:31.414Z,96781.09
2023-02-24T10:23:01.702Z,96775.69
2023-02-24T10:25:36.549Z,96773.75
2023-02-24T10:28:15.023Z,96778.75
2023-02-24T10:30:47.639Z,96770.38
2023-02-24T10:33:18.793Z,96765.25
2023-02-24T10:35:45.531Z,96763.94
2023-02-24T10:38:12.332Z,96764.16
2023-02-24T10:40:57.121Z,96759.56
2023-02-24T10:43:31.870Z,96750.94
2023-02-24T10:46:08.416Z,96741.78
2023-02-24T10:48:42.614Z,96741.78
2023-02-24T10:51:20.754Z,96729.66
2023-02-24T10:54:08.853Z,96730.53
2023-02-24T10:56:44.900Z,96720.84
2023-02-24T10:59:25.071Z,96712.72
2023-02-24T11:01:59.114Z,96714.91
2023-02-24T11:05:02.556Z,96711.13
2023-02-24T11:07:53.744Z,96700.31
2023-02-24T11:10:32.637Z,96690.88
2023-02-24T11:13:19.608Z,96687.97
2023-02-24T11:16:11.966Z,96691.56
2023-02-24T11:18:39.964Z,96679.41
2023-02-24T11:21:11.108Z,96684.50
2023-02-24T11:23:45.730Z,96674.53
2023-02-24T11:26:31.931Z,96664.22
2023-02-24T11:29:32.702Z,96655.31
2023-02-24T11:32:22.378Z,96652.59
2023-02-24T11:35:06.589Z,96657.00
2023-02-24T11:37:56.714Z,96651.91
2023-02-24T11:40:32.465Z,96639.97
2023-02-24T11:43:04.852Z,96644.28
2023-02-24T11:45:49.610Z,96640.19
2023-02-24T11:48:21.784Z,96623.84
2023-02-24T11:50:58.224Z,96640.41
2023-02-24T11:53:30.517Z,96633.09
2023-02-24T11:56:19.637Z,96638.28
2023-02-24T11:58:55.968Z,96630.28
2023-02-24T12:01:35.833Z,96621.97
2023-02-24T12:04:19.345Z,96628.44
2023-02-24T12:07:02.244Z,96628.75
2023-02-24T12:09:34.513Z,96623.69
2023-02-24T12:12:10.216Z,96624.59
2023-02-24T12:14:47.945Z,96629.41
2023-02-24T12:17:26.426Z,96616.97
2023-02-24T12:20:14.213Z,96608.88
2023-02-24T12:22:51.016Z,96599.38
2023-02-24T12:25:25.299Z,96591.59
2023-02-24T12:28:11.568Z,96599.59
2023-02-24T12:31:08.947Z,96598.59
2023-02-24T12:34:03.054Z,96593.19
2023-02-24T12:36:39.645Z,96591.59
2023-02-24T12:39:30.701Z,96588.88
2023-02-24T12:42:02.995Z,96586.19
2023-02-24T12:44:43.510Z,96591.59
2023-02-24T12:47:15.558Z,96593.97
2023-02-24T12:49:58.700Z,96586.19
2023-02-24T12:53:00.414Z,96583.75
2023-02-24T12:55:37.115Z,96581.94
2023-02-24T12:58:28.210Z,96588.44
2023-02-24T13:01:06.714Z,96581.50
2023-02-24T13:04:00.783Z,96577.78
2023-02-24T13:06:48.815Z,96571.66
2023-02-24T13:09:27.690Z,96569.84
2023-02-24T13:12:07.213Z,96560.94
2023-02-24T13:14:36.981Z,96562.03
2023-02-24T13:17:27.130Z,96561.50
2023-02-24T13:19:55.622Z,96560.13
2023-02-24T13:22:25.023Z,96556.84
2023-02-24T13:24:54.828Z,96558.44
2023-02-24T13:27:24.703Z,96545.47
2023-02-24T13:29:55.142Z,96544.84
2023-02-24T13:32:36.372Z,96538.38
2023-02-24T13:35:15.090Z,96538.28
2023-02-24T13:37:44.405Z,96545.81
2023-02-24T13:40:23.783Z,96534.44
2023-02-24T13:42:56.617Z,96531.72
2023-02-24T13:45:25.622Z,96530.09
2023-02-24T13:48:17.840Z,96537.13
2023-02-24T13:50:59.241Z,96530.09
2023-02-24T13:53:31.851Z,96527.91
2023-02-24T13:56:17.533Z,96533.22
2023-02-24T13:58:53.158Z,96519.44
2023-02-24T14:01:21.751Z,96522.84
2023-02-24T14:04:22.778Z,96508.16
2023-02-24T14:06:53.979Z,96510.75
2023-02-24T14:09:37.853Z,96502.59
2023-02-24T14:12:13.015Z,96504.38
2023-02-24T14:14:42.928Z,96499.50
2023-02-24T14:17:31.380Z,96500.50
2023-02-24T14:20:10.156Z,96507.00
2023-02-24T14:22:53.206Z,96508.09
2023-02-24T14:25:22.256Z,96498.69
2023-02-24T14:27:52.189Z,96500.56
2023-02-24T14:30:41.371Z,96492.19
2023-02-24T14:33:21.312Z,96485.56
2023-02-24T14:35:48.754Z,96498.19
2023-02-24T14:38:39.851Z,96486.38
2023-02-24T14:41:24.879Z,96486.97
2023-02-24T14:43:52.652Z,96483.53
2023-02-24T14:46:20.845Z,96480.56
2023-02-24T14:48:53.978Z,96479.34
2023-02-24T14:51:29.210Z,96492.56
2023-02-24T14:54:03.654Z,96485.25
2023-02-24T14:56:34.309Z,96487.16
2023-02-24T14:59:03.122Z,96488.75
2023-02-24T15:01:38.934Z,96481.75
2023-02-24T15:04:24.474Z,96482.03
2023-02-24T15:06:51.534Z,96483.66
2023-02-24T15:09:33.167Z,96475.56
2023-02-24T15:12:10.994Z,96473.44
2023-02-24T15:14:37.988Z,96468.94
2023-02-24T15:17:14.763Z,96466.53
2023-02-24T15:19:54.446Z,96457.94
2023-02-24T15:22:39.555Z,96457.41
2023-02-24T15:25:41.823Z,96456.94
2023-02-24T15:28:35.560Z,96452.09
2023-02-24T15:31:04.825Z,96446.50
2023-02-24T15:33:41.449Z,96450.59
2023-02-24T15:36:37.433Z,96442.06
2023-02-24T15:39:08.009Z,96448.25
2023-02-24T15:41:42.951Z,96447.78
2023-02-24T15:45:11.444Z,96441.38
2023-02-24T15:47:45.798Z,96443.75
2023-02-24T15:50:13.515Z,96446.78
2023-02-24T15:52:41.061Z,96445.44
2023-02-24T15:55:15.455Z,96441.44
2023-02-24T15:57:42.524Z,96442.84
2023-02-24T16:00:13.606Z,96443.94
2023-02-24T16:02:41.346Z,96442.31
2023-02-24T16:05:12.580Z,96444.22
2023-02-24T16:07:39.810Z,96437.50
2023-02-24T16:10:07.664Z,96441.53
2023-02-24T16:12:39.193Z,96437.81
2023-02-24T16:15:11.695Z,96438.09
2023-02-24T16:17:40.803Z,96435.19
2023-02-24T16:20:12.705Z,96430.09
2023-02-24T16:22:39.328Z,96429.31
2023-02-24T16:25:07.169Z,96429.56
2023-02-24T16:27:34.610Z,96424.78
2023-02-24T16:30:01.352Z,96431.25
2023-02-24T16:32:28.243Z,96435.38
2023-02-24T16:34:55.167Z,96426.53
2023-02-24T16:37:28.634Z,96434.13
2023-02-24T16:39:55.795Z,96429.63
2023-02-24T16:42:22.750Z,96430.19
2023-02-24T16:44:50.437Z,96424.59
2023-02-24T16:47:21.640Z,96428.91
2023-02-24T16:49:48.917Z,96432.97
2023-02-24T16:52:19.327Z,96431.66
2023-02-24T16:54:46.453Z,96435.47
2023-02-24T16:57:13.442Z,96437.47
2023-02-24T16:59:40.082Z,96438.25
2023-02-24T17:02:07.117Z,96432.63
2023-02-24T17:04:35.319Z,96431.00
2023-02-24T17:07:01.936Z,96431.63
2023-02-24T17:09:30.792Z,96426.22
2023-02-24T17:11:57.456Z,96417.41
2023-02-24T17:14:24.999Z,96424.38
2023-02-24T17:16:51.889Z,96428.19
2023-02-24T17:19:19.484Z,96409.00
2023-02-24T17:21:46.282Z,96404.72
2023-02-24T17:24:16.347Z,96422.44
2023-02-24T17:26:43.366Z,96426.28
2023-02-24T17:29:11.365Z,96422.25
2023-02-24T17:31:38.183Z,96418.28
2023-02-24T17:34:06.355Z,96422.03
2023-02-24T17:36:33.606Z,96408.63
2023-02-24T17:39:01.254Z,96417.25
2023-02-24T17:41:28.110Z,96411.03
2023-02-24T17:43:54.977Z,96404.84
2023-02-24T17:46:22.373Z,96407.28
2023-02-24T17:48:49.523Z,96404.25
2023-02-24T17:51:17.276Z,96394.06
2023-02-24T17:53:44.777Z,96399.97
2023-02-24T17:56:12.318Z,96392.47
2023-02-24T17:58:39.077Z,96400.56
2023-02-24T18:01:06.805Z,96390.06
2023-02-24T18:03:35.009Z,96386.84
2023-02-24T18:06:05.730Z,96393.63
2023-02-24T18:08:34.045Z,96387.44
2023-02-24T18:11:01.072Z,96388.81
2023-02-24T18:13:29.217Z,96390.69
2023-02-24T18:15:56.098Z,96382.78
2023-02-24T18:18:23.867Z,96378.75
2023-02-24T18:20:50.568Z,96381.19
2023-02-24T18:23:17.576Z,96371.56
2023-02-24T18:25:44.949Z,96373.47
2023-02-24T18:28:11.639Z,96376.47
2023-02-24T18:30:41.393Z,96372.44
2023-02-24T18:33:08.575Z,96373.81
2023-02-24T18:35:37.658Z,96375.47
2023-02-24T18:38:05.513Z,96378.50
2023-02-24T18:40:32.420Z,96375.91
2023-02-24T18:43:01.243Z,96376.25
2023-02-24T18:45:30.830Z,96375.56
2023-02-24T18:48:01.972Z,96369.22
2023-02-24T18:50:28.555Z,96369.00
2023-02-24T18:52:55.715Z,96366.44
2023-02-24T18:55:22.452Z,96368.44
2023-02-24T18:57:49.100Z,96365.31
2023-02-24T19:00:16.395Z,96362.44
2023-02-24T19:02:43.201Z,96364.09
2023-02-24T19:05:10.334Z,96367.91
2023-02-24T19:07:36.941Z,96362.03
2023-02-24T19:10:05.353Z,96354.81
2023-02-24T19:12:31.968Z,96366.06
2023-02-24T19:14:58.690Z,96362.34
2023-02-24T19:17:26.444Z,96363.91
2023-02-24T19:19:54.066Z,96370.91
2023-02-24T19:22:20.739Z,96364.41
2023-02-24T19:24:47.676Z,96360.94
2023-02-24T19:27:14.705Z,96360.63
2023-02-24T19:29:41.414Z,96358.78
2023-02-24T19:32:08.562Z,96355.25
2023-02-24T19:34:36.848Z,96356.34
2023-02-24T19:37:03.441Z,96362.59
2023-02-24T19:39:30.929Z,96345.50
2023-02-24T19:41:57.803Z,96351.09
2023-02-24T19:44:24.570Z,96357.56
2023-02-24T19:46:51.698Z,96353.56
2023-02-24T19:49:18.308Z,96348.47
2023-02-24T19:51:48.046Z,96351.66
2023-02-24T19:54:16.477Z,96340.91
2023-02-24T19:56:44.039Z,96344.41
2023-02-24T19:59:11.496Z,96343.84
2023-02-24T20:01:38.605Z,96346.25
2023-02-24T20:04:06.161Z,96336.31
2023-02-24T20:06:32.967Z,96340.03
2023-02-24T20:09:00.233Z,96325.81
2023-02-24T20:11:28.798Z,96335.97
2023-02-24T20:13:55.963Z,96334.59
2023-02-24T20:16:27.319Z,96325.16
2023-02-24T20:18:57.172Z,96316.78
2023-02-24T20:21:24.621Z,96326.75
2023-02-24T20:23:51.585Z,96313.31
2023-02-24T20:26:18.293Z,96309.31
2023-02-24T20:28:46.616Z,96304.16
2023-02-24T20:31:18.766Z,96304.75
2023-02-24T20:33:47.754Z,96305.78
2023-02-24T20:36:20.612Z,96294.47
2023-02-24T20:38:47.981Z,96288.84
2023-02-24T20:41:15.742Z,96290.25
2023-02-24T20:43:42.548Z,96284.34
2023-02-24T20:46:13.433Z,96285.47
2023-02-24T20:48:40.185Z,96280.66
2023-02-24T20:51:07.806Z,96279.06
2023-02-24T20:53:47.832Z,96275.88
2023-02-24T20:56:22.512Z,96267.03
2023-02-24T20:58:50.766Z,96263.53
2023-02-24T21:01:17.799Z,96258.78
2023-02-24T21:03:45.209Z,96262.66
2023-02-24T21:06:13.427Z,96263.75
2023-02-24T21:08:40.091Z,96257.91
2023-02-24T21:11:10.999Z,96264.97
2023-02-24T21:13:46.010Z,96244.91
2023-02-24T21:16:14.739Z,96254.91
2023-02-24T21:18:43.401Z,96249.59
2023-02-24T21:21:10.950Z,96249.66
2023-02-24T21:23:39.617Z,96242.72
2023-02-24T21:26:07.073Z,96232.56
2023-02-24T21:28:34.188Z,96233.69
2023-02-24T21:31:01.823Z,96221.94
2023-02-24T21:33:28.744Z,96241.53
2023-02-24T21:35:59.575Z,96239.09
2023-02-24T21:38:26.558Z,96236.69
2023-02-24T21:40:53.476Z,96238.59
2023-02-24T21:43:21.782Z,96231.88
2023-02-24T21:45:48.581Z,96225.72
2023-02-24T21:48:15.485Z,96227.84
2023-02-24T21:50:42.605Z,96230.78
2023-02-24T21:53:09.410Z,96215.19
2023-02-24T21:55:38.647Z,96224.03
2023-02-24T21:58:05.763Z,96227.81
2023-02-24T22:00:32.935Z,96220.25
2023-02-24T22:02:59.679Z,96219.16
2023-02-24T22:05:26.944Z,96207.31
2023-02-24T22:07:53.673Z,96205.72
2023-02-24T22:10:23.877Z,96214.56
2023-02-24T22:12:50.949Z,96207.56
2023-02-24T22:15:18.008Z,96209.94
2023-02-24T22:17:44.661Z,96220.91
2023-02-24T22:20:13.516Z,96223.06
2023-02-24T22:22:41.962Z,96214.44
2023-02-24T22:25:14.251Z,96210.13
2023-02-24T22:27:41.087Z,96208.19
2023-02-24T22:30:08.393Z,96192.88
2023-02-24T22:32:35.720Z,96207.06
2023-02-24T22:35:02.352Z,96204.38
2023-02-24T22:37:29.808Z,96205.69
2023-02-24T22:39:56.579Z,96204.84
2023-02-24T22:42:23.401Z,96189.81
2023-02-24T22:44:50.028Z,96189.78
2023-02-24T22:47:17.060Z,96189.50
2023-02-24T22:49:43.912Z,96184.63
2023-02-24T22:52:11.766Z,96171.19
2023-02-24T22:54:38.395Z,96170.41
2023-02-24T22:57:05.234Z,96170.41
2023-02-24T22:59:33.103Z,96168.28
2023-02-24T23:01:59.820Z,96172.06
2023-02-24T23:04:29.264Z,96165.66
2023-02-24T23:06:57.370Z,96167.22
2023-02-24T23:09:24.277Z,96171.75
2023-02-24T23:11:51.137Z,96164.78
2023-02-24T23:14:18.020Z,96176.34
2023-02-24T23:16:47.333Z,96166.69
2023-02-24T23:19:17.838Z,96170.97
2023-02-24T23:21:47.384Z,96172.59
2023-02-24T23:24:14.823Z,96161.84
2023-02-24T23:26:57.757Z,96170.41
2023-02-24T23:29:26.623Z,96166.13
2023-02-24T23:31:53.804Z,96166.38
2023-02-24T23:34:20.945Z,96173.38
2023-02-24T23:36:48.085Z,96169.84
2023-02-24T23:39:20.404Z,96149.94
2023-02-24T23:41:47.696Z,96150.47
2023-02-24T23:44:14.434Z,96160.41
2023-02-24T23:46:44.322Z,96157.72
2023-02-24T23:49:11.759Z,96156.91
2023-02-24T23:51:48.056Z,96147.47
2023-02-24T23:54:15.883Z,96146.97
2023-02-24T23:56:42.684Z,96130.94
2023-02-24T23:59:09.536Z,96131.66
